Ana Sayfa
METAR-TAF:

METAR-TAF

Havaalanları :

Garner Field

Uvalde, Teksas, Amerika Birleşik Devletleri

Enlem: 29-12-40N, Boylam: 099-44-36W, yükseklik: 287 m

Güncel hava durumu gözlemi

Rapor saat 18:15 UTC de 23 dakika önce yapıldı.
Rüzgar doğu/kuzeydoğudan 9 kt ve 15 kt'a kadar ani rüzgarlar
Sıcaklık 15°C
Nem 100%
Basınç 1016 hPa
Görüş mesafesi: 16.1 km
600 ft yükseklikte parçalı bulutlu
1500 ft yükseklikte parçalı bulutlu
5000 ft yükseklikte çok bulutlu
yağmur

METAR: KUVA 041815Z AUTO 06009G15KT 10SM RA SCT006 SCT015 OVC050 15/15 A2999 RMK AO2 P0001 T01520152

Saat: 13:38 (18:38 UTC)


TAF: eksik

4.000'den fazla havaalanı için hava durumu gözlemleri ve tahminleri (METAR ve TAF raporları).

Kullanılabilir istasyonlar harita üzerinde sarı ve kırmızı noktalarla gösterilir.

İstasyonun adını görmek için fareyi noktanın üzerinde gezdirin.

Sonrasında hava gözlem ve tahminlerini görmek için tıklayın.

Haritayı değiştirmek için: yaklaştırmak için siyah artı işaretli yeşil düğmeye ve uzaklaştırmak için de eksi işaretli düğmeye hızla tıklayın; bitişik haritalar için yeşil okları kullanın.


METAR-TAF: